createdAt,value
2022-09-13T00:00:59.825Z,94.30
2022-09-13T00:03:27.151Z,94.01
2022-09-13T00:05:53.820Z,94.33
2022-09-13T00:08:20.375Z,93.92
2022-09-13T00:10:47.532Z,94.08
2022-09-13T00:13:16.091Z,93.53
2022-09-13T00:15:45.245Z,93.53
2022-09-13T00:18:11.968Z,93.49
2022-09-13T00:20:38.642Z,93.32
2022-09-13T00:23:05.251Z,93.28
2022-09-13T00:25:31.847Z,93.44
2022-09-13T00:27:58.442Z,92.84
2022-09-13T00:30:24.974Z,93.00
2022-09-13T00:32:51.474Z,92.60
2022-09-13T00:35:18.022Z,92.54
2022-09-13T00:37:44.623Z,92.65
2022-09-13T00:40:11.366Z,92.25
2022-09-13T00:42:38.161Z,92.49
2022-09-13T00:45:10.841Z,92.63
2022-09-13T00:47:43.368Z,92.67
2022-09-13T00:50:21.958Z,92.44
2022-09-13T00:52:55.933Z,92.52
2022-09-13T00:55:32.022Z,92.36
2022-09-13T00:58:06.059Z,92.69
2022-09-13T01:00:32.799Z,92.54
2022-09-13T01:03:04.014Z,92.89
2022-09-13T01:05:38.613Z,92.99
2022-09-13T01:08:15.946Z,92.76
2022-09-13T01:10:44.762Z,92.92
2022-09-13T01:13:19.151Z,92.48
2022-09-13T01:15:46.688Z,92.55
2022-09-13T01:18:13.550Z,92.55
2022-09-13T01:20:55.015Z,92.97
2022-09-13T01:24:02.855Z,92.81
2022-09-13T01:26:56.769Z,92.62
2022-09-13T01:29:35.501Z,92.51
2022-09-13T01:32:24.693Z,92.58
2022-09-13T01:35:05.405Z,92.49
2022-09-13T01:37:56.587Z,92.47
2022-09-13T01:41:04.716Z,92.99
2022-09-13T01:43:48.798Z,93.29
2022-09-13T01:46:26.020Z,92.90
2022-09-13T01:49:08.412Z,93.19
2022-09-13T01:51:46.497Z,93.40
2022-09-13T01:54:31.357Z,93.37
2022-09-13T01:57:05.760Z,93.30
2022-09-13T01:59:50.583Z,93.49
2022-09-13T02:02:25.776Z,93.51
2022-09-13T02:05:31.708Z,93.76
2022-09-13T02:08:04.592Z,93.72
2022-09-13T02:10:37.968Z,93.96
2022-09-13T02:13:10.108Z,93.90
2022-09-13T02:15:41.657Z,93.63
2022-09-13T02:18:12.525Z,93.94
2022-09-13T02:20:44.173Z,93.75
2022-09-13T02:23:16.922Z,93.47
2022-09-13T02:25:46.253Z,93.37
2022-09-13T02:28:20.143Z,93.42
2022-09-13T02:30:51.672Z,93.87
2022-09-13T02:33:33.746Z,94.05
2022-09-13T02:36:10.568Z,94.43
2022-09-13T02:39:03.501Z,94.40
2022-09-13T02:41:41.725Z,94.50
2022-09-13T02:44:34.214Z,94.10
2022-09-13T02:47:07.895Z,94.04
2022-09-13T02:49:50.713Z,94.26
2022-09-13T02:52:43.581Z,93.88
2022-09-13T02:55:44.486Z,93.73
2022-09-13T02:58:28.730Z,93.90
2022-09-13T03:00:55.888Z,93.66
2022-09-13T03:03:22.630Z,93.47
2022-09-13T03:05:49.303Z,93.45
2022-09-13T03:08:18.291Z,93.69
2022-09-13T03:11:00.100Z,93.95
2022-09-13T03:13:30.150Z,93.53
2022-09-13T03:16:19.447Z,93.82
2022-09-13T03:19:22.996Z,93.71
2022-09-13T03:22:01.051Z,92.62
2022-09-13T03:24:42.790Z,92.45
2022-09-13T03:27:19.010Z,92.30
2022-09-13T03:30:02.240Z,92.61
2022-09-13T03:32:38.066Z,93.16
2022-09-13T03:35:16.421Z,93.98
2022-09-13T03:38:08.101Z,95.01
2022-09-13T03:40:49.765Z,96.71
2022-09-13T03:43:19.563Z,96.91
2022-09-13T03:45:53.565Z,97.69
2022-09-13T03:48:20.920Z,99.30
2022-09-13T03:50:50.087Z,99.92
2022-09-13T03:53:25.040Z,100.00
2022-09-13T03:55:52.158Z,100.00
2022-09-13T03:58:20.254Z,100.00
2022-09-13T04:00:47.377Z,100.00
2022-09-13T04:03:14.328Z,100.00
2022-09-13T04:05:41.217Z,100.00
2022-09-13T04:08:08.502Z,100.00
2022-09-13T04:10:36.513Z,100.00
2022-09-13T04:13:03.893Z,100.00
2022-09-13T04:15:31.285Z,100.00
2022-09-13T04:17:58.247Z,100.00
2022-09-13T04:20:25.788Z,100.00
2022-09-13T04:22:57.379Z,100.00
2022-09-13T04:25:24.797Z,100.00
2022-09-13T04:27:55.797Z,100.00
2022-09-13T04:30:23.351Z,100.00
2022-09-13T04:32:49.864Z,100.00
2022-09-13T04:35:17.948Z,100.00
2022-09-13T04:37:44.489Z,100.00
2022-09-13T04:40:11.303Z,100.00
2022-09-13T04:42:37.849Z,100.00
2022-09-13T04:45:04.801Z,100.00
2022-09-13T04:47:31.302Z,100.00
2022-09-13T04:49:57.905Z,100.00
2022-09-13T04:52:24.370Z,100.00
2022-09-13T04:54:50.831Z,100.00
2022-09-13T04:57:17.453Z,100.00
2022-09-13T04:59:43.910Z,100.00
2022-09-13T05:02:10.660Z,100.00
2022-09-13T05:04:37.248Z,100.00
2022-09-13T05:07:04.744Z,100.00
2022-09-13T05:09:32.155Z,100.00
2022-09-13T05:11:58.622Z,100.00
2022-09-13T05:14:25.083Z,100.00
2022-09-13T05:16:51.535Z,100.00
2022-09-13T05:19:18.198Z,100.00
2022-09-13T05:21:44.726Z,100.00
2022-09-13T05:24:11.916Z,100.00
2022-09-13T05:26:38.722Z,100.00
2022-09-13T05:29:05.506Z,100.00
2022-09-13T05:31:37.701Z,100.00
2022-09-13T05:34:07.246Z,100.00
2022-09-13T05:36:34.439Z,100.00
2022-09-13T05:39:28.579Z,100.00
2022-09-13T05:41:48.359Z,100.00
2022-09-13T05:44:14.921Z,100.00
2022-09-13T05:46:43.072Z,100.00
2022-09-13T05:49:12.448Z,100.00
2022-09-13T05:51:38.900Z,100.00
2022-09-13T05:54:05.395Z,100.00
2022-09-13T05:56:32.466Z,100.00
2022-09-13T05:58:59.185Z,100.00
2022-09-13T06:01:27.938Z,100.00
2022-09-13T06:03:57.107Z,100.00
2022-09-13T06:06:24.438Z,100.00
2022-09-13T06:08:55.131Z,100.00
2022-09-13T06:11:22.974Z,100.00
2022-09-13T06:13:50.234Z,100.00
2022-09-13T06:16:17.251Z,100.00
2022-09-13T06:18:44.098Z,100.00
2022-09-13T06:21:18.087Z,100.00
2022-09-13T06:23:50.973Z,100.00
2022-09-13T06:26:22.502Z,100.00
2022-09-13T06:28:51.354Z,100.00
2022-09-13T06:31:20.298Z,100.00
2022-09-13T06:33:47.007Z,100.00
2022-09-13T06:36:18.070Z,100.00
2022-09-13T06:38:46.559Z,100.00
2022-09-13T06:41:15.811Z,100.00
2022-09-13T06:43:42.454Z,100.00
2022-09-13T06:46:20.438Z,100.00
2022-09-13T06:48:48.829Z,100.00
2022-09-13T06:51:18.152Z,100.00
2022-09-13T06:53:45.821Z,100.00
2022-09-13T06:56:21.299Z,100.00
2022-09-13T06:58:50.305Z,100.00
2022-09-13T07:01:21.129Z,100.00
2022-09-13T07:03:50.219Z,100.00
2022-09-13T07:06:29.093Z,100.00
2022-09-13T07:08:57.451Z,100.00
2022-09-13T07:11:28.771Z,99.81
2022-09-13T07:13:57.623Z,99.03
2022-09-13T07:16:26.980Z,98.25
2022-09-13T07:18:55.648Z,97.56
2022-09-13T07:21:23.322Z,97.16
2022-09-13T07:23:51.932Z,96.76
2022-09-13T07:26:18.540Z,95.85
2022-09-13T07:28:47.307Z,94.92
2022-09-13T07:31:16.873Z,94.69
2022-09-13T07:33:44.712Z,94.38
2022-09-13T07:36:12.491Z,93.36
2022-09-13T07:38:41.277Z,92.95
2022-09-13T07:41:12.026Z,93.00
2022-09-13T07:43:39.138Z,92.25
2022-09-13T07:46:10.256Z,92.38
2022-09-13T07:48:39.448Z,91.04
2022-09-13T07:51:15.051Z,90.75
2022-09-13T07:53:43.137Z,90.72
2022-09-13T07:56:15.810Z,90.07
2022-09-13T07:58:44.262Z,89.78
2022-09-13T08:01:20.552Z,88.06
2022-09-13T08:04:01.136Z,87.70
2022-09-13T08:06:29.981Z,88.20
2022-09-13T08:08:56.702Z,85.97
2022-09-13T08:11:26.034Z,85.72
2022-09-13T08:13:53.552Z,85.28
2022-09-13T08:16:22.474Z,83.26
2022-09-13T08:18:51.564Z,83.89
2022-09-13T08:21:18.897Z,83.85
2022-09-13T08:23:46.122Z,84.61
2022-09-13T08:26:13.984Z,83.40
2022-09-13T08:28:42.198Z,82.19
2022-09-13T08:31:15.261Z,82.28
2022-09-13T08:33:47.306Z,82.07
2022-09-13T08:36:15.197Z,83.24
2022-09-13T08:38:48.749Z,82.69
2022-09-13T08:41:27.439Z,83.29
2022-09-13T08:44:03.242Z,84.46
2022-09-13T08:46:35.585Z,85.34
2022-09-13T08:49:07.483Z,85.10
2022-09-13T08:51:54.585Z,85.78
2022-09-13T08:54:21.383Z,86.70
2022-09-13T08:57:11.239Z,86.05
2022-09-13T08:59:51.877Z,84.35
2022-09-13T09:02:56.739Z,83.91
2022-09-13T09:05:26.894Z,84.35
2022-09-13T09:08:06.312Z,84.57
2022-09-13T09:10:47.181Z,85.28
2022-09-13T09:13:24.622Z,84.77
2022-09-13T09:16:25.032Z,85.00
2022-09-13T09:18:52.531Z,84.67
2022-09-13T09:21:19.056Z,84.02
2022-09-13T09:23:55.627Z,84.58
2022-09-13T09:26:29.071Z,83.69
2022-09-13T09:29:00.181Z,83.47
2022-09-13T09:31:58.960Z,82.33
2022-09-13T09:34:42.764Z,82.71
2022-09-13T09:37:26.033Z,82.07
2022-09-13T09:39:54.434Z,80.86
2022-09-13T09:42:25.493Z,80.49
2022-09-13T09:44:56.571Z,79.25
2022-09-13T09:47:29.419Z,79.35
2022-09-13T09:50:32.193Z,77.50
2022-09-13T09:53:24.192Z,78.33
2022-09-13T09:56:15.408Z,75.41
2022-09-13T09:58:45.153Z,75.46
2022-09-13T10:01:32.414Z,75.07
2022-09-13T10:04:27.404Z,74.94
2022-09-13T10:07:28.600Z,75.99
2022-09-13T10:10:05.413Z,76.78
2022-09-13T10:12:35.770Z,77.85
2022-09-13T10:15:18.207Z,79.45
2022-09-13T10:18:02.080Z,80.32
2022-09-13T10:20:29.385Z,80.04
2022-09-13T10:23:13.909Z,79.96
2022-09-13T10:25:47.237Z,79.17
2022-09-13T10:28:18.875Z,79.79
2022-09-13T10:30:57.529Z,80.67
2022-09-13T10:33:33.932Z,81.53
2022-09-13T10:36:13.993Z,80.67
2022-09-13T10:38:52.920Z,81.80
2022-09-13T10:41:26.258Z,82.47
2022-09-13T10:43:58.731Z,82.90
2022-09-13T10:46:27.328Z,82.41
2022-09-13T10:48:56.439Z,82.52
2022-09-13T10:51:34.359Z,82.35
2022-09-13T10:54:17.271Z,83.36
2022-09-13T10:56:44.177Z,83.53
2022-09-13T10:59:29.099Z,83.32
2022-09-13T11:02:26.404Z,83.32
2022-09-13T11:05:18.724Z,82.50
2022-09-13T11:08:12.888Z,82.19
2022-09-13T11:10:53.824Z,82.58
2022-09-13T11:13:26.535Z,82.41
2022-09-13T11:16:25.185Z,82.86
2022-09-13T11:18:57.704Z,82.00
2022-09-13T11:21:38.679Z,81.85
2022-09-13T11:24:23.235Z,82.79
2022-09-13T11:26:54.652Z,82.76
2022-09-13T11:29:48.442Z,82.29
2022-09-13T11:32:33.882Z,82.10
2022-09-13T11:35:35.985Z,81.36
2022-09-13T11:38:41.356Z,80.82
2022-09-13T11:41:23.989Z,81.15
2022-09-13T11:44:11.370Z,81.20
2022-09-13T11:46:52.029Z,80.86
2022-09-13T11:49:46.302Z,82.30
2022-09-13T11:52:42.322Z,81.88
2022-09-13T11:55:28.562Z,82.60
2022-09-13T11:58:37.545Z,82.22
2022-09-13T12:01:08.335Z,83.24
2022-09-13T12:03:52.557Z,84.14
2022-09-13T12:06:28.292Z,85.59
2022-09-13T12:09:00.538Z,86.32
2022-09-13T12:11:33.813Z,85.48
2022-09-13T12:14:05.201Z,86.29
2022-09-13T12:16:37.642Z,86.76
2022-09-13T12:19:22.666Z,87.62
2022-09-13T12:21:51.597Z,88.08
2022-09-13T12:24:30.813Z,89.21
2022-09-13T12:27:14.375Z,90.45
2022-09-13T12:29:50.352Z,91.50
2022-09-13T12:32:18.660Z,92.41
2022-09-13T12:34:59.642Z,92.64
2022-09-13T12:38:03.366Z,93.57
2022-09-13T12:40:51.528Z,93.87
2022-09-13T12:43:53.453Z,93.93
2022-09-13T12:46:49.164Z,93.55
2022-09-13T12:49:42.952Z,93.66
2022-09-13T12:52:35.656Z,93.40
2022-09-13T12:55:47.052Z,92.63
2022-09-13T12:58:44.972Z,91.89
2022-09-13T13:01:22.141Z,90.80
2022-09-13T13:03:54.808Z,90.50
2022-09-13T13:06:30.885Z,89.59
2022-09-13T13:09:01.654Z,89.59
2022-09-13T13:11:31.357Z,90.20
2022-09-13T13:14:02.226Z,88.66
2022-09-13T13:16:33.878Z,88.36
2022-09-13T13:19:23.764Z,88.25
2022-09-13T13:21:50.293Z,88.14
2022-09-13T13:24:16.756Z,88.82
2022-09-13T13:26:43.179Z,88.84
2022-09-13T13:29:30.473Z,87.44
2022-09-13T13:32:07.799Z,86.91
2022-09-13T13:34:42.303Z,85.75
2022-09-13T13:37:08.757Z,85.26
2022-09-13T13:39:43.200Z,85.49
2022-09-13T13:42:24.840Z,85.24
2022-09-13T13:45:05.423Z,86.35
2022-09-13T13:47:32.706Z,86.98
2022-09-13T13:50:19.661Z,86.84
2022-09-13T13:52:55.925Z,86.70
2022-09-13T13:55:41.155Z,86.78
2022-09-13T13:58:07.515Z,87.14
2022-09-13T14:00:36.524Z,88.17
2022-09-13T14:03:02.929Z,86.62
2022-09-13T14:05:53.812Z,86.56
2022-09-13T14:08:46.426Z,86.55
2022-09-13T14:11:58.097Z,85.70
2022-09-13T14:14:57.790Z,86.24
2022-09-13T14:17:52.203Z,85.77
2022-09-13T14:20:21.096Z,86.08
2022-09-13T14:22:48.015Z,86.07
2022-09-13T14:25:20.236Z,85.81
2022-09-13T14:27:48.598Z,85.61
2022-09-13T14:30:26.987Z,84.10
2022-09-13T14:32:58.320Z,84.37
2022-09-13T14:35:29.373Z,85.09
2022-09-13T14:38:09.508Z,85.33
2022-09-13T14:40:37.737Z,84.64
2022-09-13T14:43:19.467Z,83.89
2022-09-13T14:45:49.629Z,83.17
2022-09-13T14:48:28.420Z,83.77
2022-09-13T14:51:00.755Z,83.87
2022-09-13T14:53:32.559Z,83.17
2022-09-13T14:56:02.037Z,82.32
2022-09-13T14:58:52.918Z,82.37
2022-09-13T15:01:26.886Z,81.91
2022-09-13T15:03:57.021Z,81.70
2022-09-13T15:06:42.256Z,81.25
2022-09-13T15:09:11.616Z,81.72
2022-09-13T15:11:43.355Z,80.02
2022-09-13T15:14:12.568Z,78.38
2022-09-13T15:16:54.391Z,79.02
2022-09-13T15:19:23.784Z,78.43
2022-09-13T15:21:51.252Z,78.98
2022-09-13T15:24:29.423Z,79.21
2022-09-13T15:27:07.686Z,79.67
2022-09-13T15:29:37.577Z,80.11
2022-09-13T15:32:06.589Z,80.22
2022-09-13T15:34:33.095Z,81.25
2022-09-13T15:37:14.509Z,81.12
2022-09-13T15:39:49.548Z,79.29
2022-09-13T15:42:17.328Z,79.63
2022-09-13T15:44:44.055Z,79.06
2022-09-13T15:47:16.321Z,77.34
2022-09-13T15:49:50.175Z,73.64
2022-09-13T15:52:18.708Z,74.80
2022-09-13T15:54:48.016Z,72.85
2022-09-13T15:57:28.725Z,73.50
2022-09-13T15:59:56.803Z,73.50
2022-09-13T16:02:28.630Z,73.65
2022-09-13T16:04:55.631Z,73.37
2022-09-13T16:07:23.399Z,72.32
2022-09-13T16:09:50.536Z,70.90
2022-09-13T16:12:18.939Z,70.00
2022-09-13T16:14:46.352Z,68.67
2022-09-13T16:17:19.069Z,67.41
2022-09-13T16:19:45.618Z,68.18
2022-09-13T16:22:12.872Z,68.03
2022-09-13T16:24:39.709Z,66.70
2022-09-13T16:27:06.405Z,64.38
2022-09-13T16:29:32.935Z,63.61
2022-09-13T16:32:01.572Z,62.07
2022-09-13T16:34:28.091Z,60.28
2022-09-13T16:36:54.601Z,57.68
2022-09-13T16:39:21.679Z,56.35
2022-09-13T16:41:48.744Z,55.23
2022-09-13T16:44:16.106Z,54.08
2022-09-13T16:46:43.422Z,53.59
2022-09-13T16:49:10.559Z,52.64
2022-09-13T16:51:38.024Z,52.21
2022-09-13T16:54:05.069Z,51.79
2022-09-13T16:56:32.044Z,53.64
2022-09-13T16:58:58.534Z,55.51
2022-09-13T17:01:29.767Z,56.72
2022-09-13T17:03:57.436Z,58.14
2022-09-13T17:06:26.441Z,59.41
2022-09-13T17:08:57.151Z,60.63
2022-09-13T17:11:25.845Z,61.96
2022-09-13T17:13:52.744Z,63.34
2022-09-13T17:16:40.048Z,64.52
2022-09-13T17:19:12.339Z,65.68
2022-09-13T17:21:38.876Z,66.71
2022-09-13T17:24:08.986Z,67.88
2022-09-13T17:26:38.889Z,69.07
2022-09-13T17:29:05.637Z,70.08
2022-09-13T17:31:32.560Z,70.53
2022-09-13T17:33:59.141Z,71.41
2022-09-13T17:36:25.677Z,72.39
2022-09-13T17:38:56.835Z,73.05
2022-09-13T17:41:24.337Z,73.95
2022-09-13T17:43:50.955Z,74.41
2022-09-13T17:46:22.679Z,75.25
2022-09-13T17:48:51.815Z,75.59
2022-09-13T17:51:21.095Z,76.24
2022-09-13T17:53:54.065Z,77.09
2022-09-13T17:56:28.192Z,77.96
2022-09-13T17:58:54.651Z,78.48
2022-09-13T18:01:21.343Z,79.08
2022-09-13T18:03:48.255Z,79.76
2022-09-13T18:06:15.126Z,80.55
2022-09-13T18:08:42.224Z,81.10
2022-09-13T18:11:13.542Z,81.64
2022-09-13T18:13:42.792Z,82.09
2022-09-13T18:16:20.142Z,82.49
2022-09-13T18:18:48.053Z,82.82
2022-09-13T18:21:18.821Z,83.25
2022-09-13T18:23:47.612Z,83.62
2022-09-13T18:26:17.221Z,84.40
2022-09-13T18:28:44.854Z,84.77
2022-09-13T18:31:14.957Z,85.40
2022-09-13T18:33:42.388Z,86.33
2022-09-13T18:36:11.813Z,86.62
2022-09-13T18:38:40.740Z,86.72
2022-09-13T18:41:14.881Z,86.40
2022-09-13T18:43:43.080Z,86.39
2022-09-13T18:46:14.705Z,86.57
2022-09-13T18:48:46.346Z,86.80
2022-09-13T18:51:16.077Z,86.79
2022-09-13T18:53:43.879Z,87.35
2022-09-13T18:56:13.225Z,87.67
2022-09-13T18:58:41.257Z,87.95
2022-09-13T19:01:07.746Z,88.02
2022-09-13T19:03:35.755Z,88.17
2022-09-13T19:06:20.565Z,88.97
2022-09-13T19:08:48.714Z,89.12
2022-09-13T19:11:42.227Z,89.84
2022-09-13T19:14:03.809Z,90.10
2022-09-13T19:16:30.403Z,90.42
2022-09-13T19:18:56.967Z,90.94
2022-09-13T19:21:27.342Z,90.90
2022-09-13T19:24:00.328Z,90.61
2022-09-13T19:26:34.591Z,90.13
2022-09-13T19:29:06.506Z,90.31
2022-09-13T19:31:39.079Z,90.23
2022-09-13T19:34:06.902Z,90.35
2022-09-13T19:36:36.073Z,90.65
2022-09-13T19:39:04.898Z,89.69
2022-09-13T19:41:31.482Z,87.75
2022-09-13T19:44:00.649Z,87.49
2022-09-13T19:46:31.653Z,86.36
2022-09-13T19:49:00.778Z,85.75
2022-09-13T19:51:37.356Z,85.21
2022-09-13T19:54:05.727Z,85.05
2022-09-13T19:56:35.111Z,84.90
2022-09-13T19:59:02.296Z,84.53
2022-09-13T20:01:32.097Z,84.79
2022-09-13T20:04:01.220Z,84.44
2022-09-13T20:06:29.349Z,84.75
2022-09-13T20:08:59.983Z,84.74
2022-09-13T20:11:28.445Z,85.16
2022-09-13T20:13:56.372Z,85.38
2022-09-13T20:16:26.469Z,85.58
2022-09-13T20:18:53.074Z,85.85
2022-09-13T20:21:19.919Z,85.87
2022-09-13T20:23:47.052Z,86.18
2022-09-13T20:26:14.717Z,86.61
2022-09-13T20:28:41.864Z,86.59
2022-09-13T20:31:08.760Z,86.70
2022-09-13T20:33:36.187Z,86.96
2022-09-13T20:36:04.511Z,87.47
2022-09-13T20:38:31.053Z,87.59
2022-09-13T20:41:13.092Z,87.45
2022-09-13T20:43:41.178Z,87.78
2022-09-13T20:46:11.345Z,88.32
2022-09-13T20:48:38.089Z,88.93
2022-09-13T20:51:09.891Z,89.23
2022-09-13T20:53:37.761Z,90.05
2022-09-13T20:56:08.544Z,90.15
2022-09-13T20:58:36.028Z,91.04
2022-09-13T21:01:08.530Z,91.06
2022-09-13T21:03:36.825Z,91.62
2022-09-13T21:06:04.389Z,91.97
2022-09-13T21:08:43.366Z,92.55
2022-09-13T21:11:16.247Z,92.85
2022-09-13T21:13:48.710Z,92.97
2022-09-13T21:16:20.748Z,93.88
2022-09-13T21:18:47.771Z,93.98
2022-09-13T21:25:26.783Z,95.11
2022-09-13T21:27:53.231Z,95.47
2022-09-13T21:30:19.673Z,95.76
2022-09-13T21:32:46.080Z,96.08
2022-09-13T21:35:12.656Z,96.47
2022-09-13T21:37:39.170Z,96.78
2022-09-13T21:40:06.153Z,97.22
2022-09-13T21:42:33.147Z,98.08
2022-09-13T21:44:59.718Z,98.46
2022-09-13T21:47:26.323Z,98.90
2022-09-13T21:49:52.983Z,99.01
2022-09-13T21:52:19.803Z,99.26
2022-09-13T21:54:46.329Z,99.23
2022-09-13T21:57:12.791Z,99.41
2022-09-13T21:59:39.542Z,99.53
2022-09-13T22:02:06.107Z,100.00
2022-09-13T22:04:33.099Z,100.00
2022-09-13T22:07:00.495Z,100.00
2022-09-13T22:09:27.758Z,100.00
2022-09-13T22:11:55.256Z,100.00
2022-09-13T22:14:22.361Z,100.00
2022-09-13T22:16:50.095Z,100.00
2022-09-13T22:19:20.187Z,100.00
2022-09-13T22:21:48.559Z,100.00
2022-09-13T22:24:18.791Z,100.00
2022-09-13T22:26:47.690Z,100.00
2022-09-13T22:29:17.838Z,100.00
2022-09-13T22:31:46.573Z,100.00
2022-09-13T22:34:15.956Z,100.00
2022-09-13T22:36:43.062Z,100.00
2022-09-13T22:39:12.164Z,100.00
2022-09-13T22:41:39.776Z,100.00
2022-09-13T22:44:06.337Z,100.00
2022-09-13T22:46:38.403Z,100.00
2022-09-13T22:49:05.993Z,100.00
2022-09-13T22:51:33.244Z,100.00
2022-09-13T22:54:04.878Z,100.00
2022-09-13T22:56:35.497Z,100.00
2022-09-13T22:59:05.661Z,100.00
2022-09-13T23:01:32.663Z,100.00
2022-09-13T23:04:00.415Z,100.00
2022-09-13T23:06:28.359Z,100.00
2022-09-13T23:08:59.156Z,100.00
2022-09-13T23:11:28.552Z,100.00
2022-09-13T23:13:58.729Z,100.00
2022-09-13T23:16:27.774Z,100.00
2022-09-13T23:18:55.759Z,100.00
2022-09-13T23:21:25.467Z,100.00
2022-09-13T23:23:52.412Z,100.00
2022-09-13T23:26:20.996Z,100.00
2022-09-13T23:28:53.772Z,100.00
2022-09-13T23:31:22.591Z,100.00
2022-09-13T23:33:51.812Z,100.00
2022-09-13T23:36:21.631Z,100.00
2022-09-13T23:38:50.644Z,100.00
2022-09-13T23:41:18.231Z,100.00
2022-09-13T23:43:45.274Z,100.00
2022-09-13T23:46:12.627Z,100.00
2022-09-13T23:48:39.652Z,100.00
2022-09-13T23:51:09.411Z,100.00
2022-09-13T23:53:37.049Z,100.00
2022-09-13T23:56:05.934Z,100.00
2022-09-13T23:58:32.409Z,100.00
